| time (UTC) | temp F | wind direction | speed knots | gust knots | rain 1hr in | rain 24hr in | rain mn in | humidity % | barometer mb |
| 20260505121539 | 58 | 63 | 6.1 | 13.0 | 0.00 | 0.00 | 0.00 | 79 | 1008.9 |
| 20260505120003 | 58 | 56 | 8.7 | 13.9 | 0.00 | 0.00 | 0.00 | 79 | 1008.9 |
| 20260505114618 | 57 | 28 | 7.8 | 13.0 | 0.00 | 0.00 | 0.00 | 79 | 1009.0 |
| 20260505113103 | 58 | 46 | 7.0 | 10.4 | 0.00 | 0.00 | 0.00 | 78 | 1009.1 |
| 20260505111557 | 58 | 49 | 10.4 | 13.9 | 0.00 | 0.00 | 0.00 | 78 | 1009.1 |
| 20260505101609 | 55 | 43 | 8.7 | 12.2 | 0.00 | 0.00 | 0.00 | 82 | 1009.4 |
| 20260505100013 | 54 | 49 | 7.8 | 13.9 | 0.00 | 0.00 | 0.00 | 83 | 1009.5 |
| 20260505094628 | 54 | 43 | 7.8 | 12.2 | 0.00 | 0.00 | 0.00 | 85 | 1009.5 |
| 20260505093116 | 53 | 43 | 7.8 | 13.9 | 0.00 | 0.00 | 0.00 | 85 | 1009.5 |
| 20260505091604 | 52 | 39 | 9.6 | 12.2 | 0.00 | 0.00 | 0.00 | 85 | 1009.9 |
| 20260505090057 | 52 | 28 | 7.8 | 13.9 | 0.00 | 0.00 | 0.00 | 85 | 1010.0 |
| 20260505084624 | 52 | 49 | 9.6 | 13.9 | 0.00 | 0.00 | 0.00 | 84 | 1009.9 |
| 20260505083110 | 52 | 15 | 8.7 | 13.9 | 0.00 | 0.00 | 0.00 | 86 | 1009.9 |
| 20260505081604 | 51 | 5 | 7.8 | 15.6 | 0.00 | 0.00 | 0.00 | 86 | 1009.9 |
| 20260505080048 | 52 | 14 | 7.8 | 15.6 | 0.00 | 0.00 | 0.00 | 86 | 1009.9 |
| 20260505074510 | 52 | 49 | 4.3 | 12.2 | 0.00 | 0.00 | 0.00 | 86 | 1010.0 |
| 20260505073125 | 52 | 18 | 6.1 | 12.2 | 0.00 | 0.00 | 0.00 | 87 | 1010.0 |
| 20260505071553 | 52 | 17 | 7.0 | 12.2 | 0.00 | 0.00 | 0.00 | 87 | 1010.0 |
| 20260505070023 | 51 | 35 | 6.1 | 17.4 | 0.00 | 0.00 | 0.00 | 87 | 1010.0 |
| 20260505064504 | 51 | 10 | 7.0 | 10.4 | 0.00 | 0.00 | 0.00 | 87 | 1010.1 |
| 20260505063121 | 51 | 22 | 6.1 | 15.6 | 0.00 | 0.00 | 0.00 | 87 | 1010.1 |
| 20260505061616 | 51 | 13 | 8.7 | 15.6 | 0.00 | 0.00 | 0.00 | 87 | 1010.0 |
| 20260505060011 | 51 | 30 | 6.1 | 13.0 | 0.00 | 0.00 | 0.00 | 88 | 1010.0 |
| 20260505054627 | 51 | 24 | 6.1 | 12.2 | 0.00 | 0.00 | 0.00 | 88 | 1010.1 |
| 20260505053113 | 51 | 24 | 7.8 | 11.3 | 0.00 | 0.00 | 0.00 | 88 | 1010.2 |
| 20260505051605 | 51 | 9 | 7.0 | 13.0 | 0.00 | 0.00 | 0.00 | 88 | 1010.2 |
| 20260505041620 | 51 | 12 | 7.8 | 11.3 | 0.00 | 0.00 | 0.00 | 88 | 1010.5 |
| 20260505040105 | 51 | 360 | 5.2 | 8.7 | 0.00 | 0.00 | 0.00 | 88 | 1010.5 |
| 20260505034528 | 51 | 17 | 6.1 | 8.7 | 0.00 | 0.00 | 0.00 | 88 | 1010.6 |
| 20260505033030 | 51 | 34 | 7.0 | 10.4 | 0.00 | 0.00 | 0.00 | 88 | 1010.6 |
| 20260505031505 | 51 | 42 | 7.0 | 11.3 | 0.00 | 0.00 | 0.00 | 88 | 1010.6 |
| 20260505030120 | 51 | 17 | 6.1 | 10.4 | 0.00 | 0.00 | 0.00 | 89 | 1010.6 |
| 20260505024611 | 51 | 27 | 6.1 | 10.4 | 0.00 | 0.00 | 0.00 | 89 | 1010.7 |
| 20260505023056 | 51 | 35 | 5.2 | 8.7 | 0.00 | 0.00 | 0.00 | 89 | 1010.7 |
| 20260505021602 | 51 | 42 | 8.7 | 12.2 | 0.00 | 0.00 | 0.00 | 89 | 1010.7 |
| 20260505020010 | 51 | 28 | 6.1 | 11.3 | 0.00 | 0.00 | 0.00 | 90 | 1010.6 |
| 20260505014626 | 52 | 21 | 7.0 | 12.2 | 0.00 | 0.00 | 0.00 | 90 | 1010.6 |
| 20260505013009 | 52 | 19 | 7.0 | 15.6 | 0.00 | 0.00 | 0.00 | 91 | 1010.6 |
| 20260505011624 | 52 | 355 | 7.0 | 12.2 | 0.00 | 0.00 | 0.00 | 91 | 1010.5 |
| 20260505010006 | 52 | 5 | 7.0 | 11.3 | 0.00 | 0.00 | 0.00 | 91 | 1010.8 |
| 20260505004624 | 52 | 34 | 7.0 | 10.4 | 0.00 | 0.00 | 0.00 | 91 | 1011.0 |
| 20260505003107 | 52 | 360 | 6.1 | 11.3 | 0.00 | 0.00 | 0.00 | 91 | 1011.2 |
| 20260505001511 | 52 | 360 | 7.0 | 12.2 | 0.00 | 0.00 | 0.00 | 91 | 1011.3 |
| 20260505000108 | 52 | 5 | 6.1 | 10.4 | 0.00 | 0.00 | 0.00 | 91 | 1011.5 |
| 20260504234555 | 51 | 19 | 7.8 | 11.3 | 0.00 | 0.00 | 0.00 | 91 | 1011.5 |
| 20260504233055 | 51 | 15 | 6.1 | 11.3 | 0.00 | 0.00 | 0.00 | 91 | 1011.7 |
| 20260504231505 | 51 | 14 | 7.0 | 13.0 | 0.00 | 0.00 | 0.00 | 91 | 1011.7 |
| 20260504230121 | 52 | 9 | 7.8 | 13.0 | 0.00 | 0.00 | 0.00 | 91 | 1011.7 |
| 20260504224610 | 51 | 11 | 6.1 | 13.0 | 0.00 | 0.00 | 0.00 | 91 | 1011.7 |
| 20260504223015 | 51 | 19 | 8.7 | 15.6 | 0.00 | 0.00 | 0.00 | 91 | 1011.8 |
| 20260504221609 | 51 | 5 | 7.0 | 15.6 | 0.00 | 0.00 | 0.00 | 91 | 1011.9 |
| 20260504220010 | 52 | 5 | 7.8 | 13.9 | 0.00 | 0.00 | 0.00 | 91 | 1011.9 |
| 20260504214627 | 52 | 355 | 9.6 | 16.5 | 0.00 | 0.00 | 0.00 | 91 | 1012.0 |
| 20260504213103 | 52 | 24 | 10.4 | 19.1 | 0.00 | 0.00 | 0.00 | 90 | 1012.1 |
| 20260504211515 | 52 | 5 | 10.4 | 15.6 | 0.00 | 0.00 | 0.00 | 91 | 1012.2 |
| 20260504210007 | 52 | 5 | 7.8 | 15.6 | 0.00 | 0.00 | 0.00 | 91 | 1012.1 |
| 20260504204620 | 52 | 22 | 7.0 | 15.6 | 0.00 | 0.00 | 0.00 | 91 | 1012.2 |
| 20260504203107 | 52 | 355 | 8.7 | 16.5 | 0.00 | 0.00 | 0.00 | 91 | 1012.1 |
| 20260504201510 | 52 | 20 | 7.8 | 13.0 | 0.00 | 0.00 | 0.00 | 91 | 1012.1 |
| 20260504200125 | 52 | 17 | 7.0 | 12.2 | 0.00 | 0.00 | 0.00 | 90 | 1012.2 |
| 20260504194618 | 52 | 355 | 7.0 | 11.3 | 0.00 | 0.00 | 0.00 | 90 | 1012.0 |
| 20260504193103 | 52 | 13 | 7.0 | 10.4 | 0.00 | 0.00 | 0.00 | 90 | 1011.8 |
| 20260504191510 | 53 | 11 | 4.3 | 10.4 | 0.00 | 0.00 | 0.00 | 90 | 1011.8 |
| 20260504190121 | 53 | 5 | 9.6 | 16.5 | 0.00 | 0.00 | 0.00 | 89 | 1011.7 |
| 20260504184611 | 53 | 26 | 8.7 | 13.9 | 0.00 | 0.00 | 0.00 | 89 | 1011.7 |
| 20260504183014 | 53 | 20 | 8.7 | 18.2 | 0.00 | 0.00 | 0.00 | 89 | 1011.5 |
| 20260504181631 | 54 | 13 | 9.6 | 17.4 | 0.00 | 0.00 | 0.00 | 89 | 1011.2 |
| 20260504180054 | 54 | 11 | 7.8 | 16.5 | 0.00 | 0.00 | 0.00 | 89 | 1011.2 |
| 20260504174546 | 55 | 5 | 8.7 | 13.9 | 0.00 | 0.00 | 0.00 | 89 | 1011.3 |
| 20260504173008 | 55 | 5 | 8.7 | 15.6 | 0.00 | 0.00 | 0.00 | 88 | 1011.3 |
| 20260504171624 | 56 | 355 | 8.7 | 15.6 | 0.00 | 0.00 | 0.00 | 88 | 1011.3 |
| 20260504170109 | 57 | 19 | 8.7 | 13.9 | 0.00 | 0.00 | 0.00 | 86 | 1011.3 |
| 20260504160107 | 64 | 5 | 8.7 | 13.9 | 0.00 | 0.02 | 0.00 | 79 | 1010.9 |
| 20260504140114 | 68 | 348 | 3.5 | 6.1 | 0.00 | 0.06 | 0.00 | 71 | 1011.0 |
| 20260504130107 | 67 | 333 | 2.6 | 6.1 | 0.00 | 0.17 | 0.00 | 75 | 1011.7 |